createdAt,value
2022-08-20T00:02:13.591Z,14.50
2022-08-20T00:04:42.050Z,18.48
2022-08-20T00:07:11.408Z,15.77
2022-08-20T00:12:23.976Z,14.82
2022-08-20T00:14:52.061Z,23.02
2022-08-20T00:17:20.106Z,12.55
2022-08-20T00:19:48.128Z,12.30
2022-08-20T00:22:17.628Z,14.90
2022-08-20T00:24:45.776Z,13.10
2022-08-20T00:27:14.900Z,17.90
2022-08-20T00:29:42.919Z,17.98
2022-08-20T00:32:10.920Z,14.00
2022-08-20T00:34:38.922Z,13.18
2022-08-20T00:37:07.724Z,13.63
2022-08-20T00:39:37.153Z,15.30
2022-08-20T00:42:05.811Z,12.27
2022-08-20T00:44:33.993Z,16.42
2022-08-20T00:47:02.796Z,18.48
2022-08-20T00:49:33.012Z,14.60
2022-08-20T00:52:06.645Z,17.73
2022-08-20T00:54:40.595Z,16.50
2022-08-20T00:57:11.655Z,14.88
2022-08-20T00:59:42.815Z,15.32
2022-08-20T01:02:14.257Z,18.85
2022-08-20T01:04:45.250Z,13.18
2022-08-20T01:07:13.260Z,16.23
2022-08-20T01:09:58.107Z,17.38
2022-08-20T01:12:27.667Z,17.17
2022-08-20T01:14:58.525Z,13.85
2022-08-20T01:17:30.066Z,21.27
2022-08-20T01:20:02.487Z,21.00
2022-08-20T01:22:57.217Z,20.00
2022-08-20T01:25:35.198Z,15.32
2022-08-20T01:28:05.132Z,15.57
2022-08-20T01:30:34.091Z,19.65
2022-08-20T01:33:02.697Z,15.60
2022-08-20T01:35:31.030Z,19.08
2022-08-20T01:37:59.038Z,21.30
2022-08-20T01:40:45.493Z,21.70
2022-08-20T01:43:15.372Z,18.52
2022-08-20T01:45:45.530Z,18.45
2022-08-20T01:48:16.566Z,20.63
2022-08-20T01:50:50.692Z,17.75
2022-08-20T01:53:22.427Z,18.63
2022-08-20T01:55:50.452Z,16.90
2022-08-20T01:58:19.940Z,16.90
2022-08-20T02:00:48.202Z,17.17
2022-08-20T02:03:16.305Z,19.80
2022-08-20T02:05:44.680Z,16.00
2022-08-20T02:08:12.889Z,22.33
2022-08-20T02:10:41.041Z,26.40
2022-08-20T02:13:10.209Z,18.55
2022-08-20T02:15:43.167Z,17.23
2022-08-20T02:18:14.257Z,15.90
2022-08-20T02:20:43.621Z,18.92
2022-08-20T02:23:13.081Z,17.30
2022-08-20T02:25:43.121Z,21.98
2022-08-20T02:28:14.185Z,16.50
2022-08-20T02:30:47.103Z,17.92
2022-08-20T02:33:17.783Z,19.00
2022-08-20T02:35:48.346Z,19.30
2022-08-20T02:38:17.560Z,25.40
2022-08-20T02:40:49.122Z,17.77
2022-08-20T02:43:18.359Z,21.70
2022-08-20T02:45:47.783Z,19.48
2022-08-20T02:48:23.005Z,20.60
2022-08-20T02:50:54.428Z,21.38
2022-08-20T02:53:22.606Z,21.73
2022-08-20T02:55:50.654Z,27.38
2022-08-20T02:58:19.205Z,18.85
2022-08-20T03:00:48.928Z,25.13
2022-08-20T03:03:20.360Z,24.90
2022-08-20T03:05:48.330Z,24.25
2022-08-20T03:08:17.262Z,22.85
2022-08-20T03:10:47.234Z,24.98
2022-08-20T03:13:16.702Z,20.27
2022-08-20T03:15:47.226Z,22.30
2022-08-20T03:18:18.080Z,24.63
2022-08-20T03:20:46.740Z,22.30
2022-08-20T03:23:21.957Z,16.77
2022-08-20T03:25:50.492Z,18.38
2022-08-20T03:28:19.208Z,18.30
2022-08-20T03:30:47.719Z,20.02
2022-08-20T03:33:17.269Z,18.13
2022-08-20T03:35:45.273Z,20.67
2022-08-20T03:38:17.393Z,19.88
2022-08-20T03:40:49.636Z,24.52
2022-08-20T03:43:18.291Z,24.10
2022-08-20T03:45:47.479Z,18.17
2022-08-20T03:48:20.774Z,18.83
2022-08-20T03:50:51.200Z,14.77
2022-08-20T03:53:19.687Z,13.00
2022-08-20T03:55:53.773Z,16.77
2022-08-20T03:58:30.047Z,13.73
2022-08-20T04:01:06.230Z,14.05
2022-08-20T04:03:35.897Z,14.20
2022-08-20T04:06:04.270Z,17.67
2022-08-20T04:08:32.412Z,16.27
2022-08-20T04:11:00.959Z,11.40
2022-08-20T04:13:30.586Z,17.35
2022-08-20T04:15:58.742Z,10.77
2022-08-20T04:18:28.130Z,15.70
2022-08-20T04:20:57.569Z,19.27
2022-08-20T04:23:25.591Z,22.33
2022-08-20T04:25:56.485Z,21.67
2022-08-20T04:28:26.974Z,28.92
2022-08-20T04:30:55.645Z,17.67
2022-08-20T04:33:35.194Z,18.83
2022-08-20T04:36:06.615Z,17.45
2022-08-20T04:38:48.049Z,23.58
2022-08-20T04:41:22.387Z,23.30
2022-08-20T04:43:52.045Z,22.15
2022-08-20T04:46:20.364Z,25.17
2022-08-20T04:48:49.050Z,21.55
2022-08-20T04:51:23.400Z,19.23
2022-08-20T04:56:24.274Z,21.35
2022-08-20T04:58:52.959Z,18.67
2022-08-20T05:01:23.099Z,17.08
2022-08-20T05:03:51.306Z,14.02
2022-08-20T05:06:20.603Z,14.63
2022-08-20T05:08:48.725Z,16.90
2022-08-20T05:11:34.735Z,13.45
2022-08-20T05:14:05.596Z,12.85
2022-08-20T05:16:38.296Z,16.73
2022-08-20T05:19:07.085Z,14.05
2022-08-20T05:21:36.814Z,18.50
2022-08-20T05:24:05.521Z,18.05
2022-08-20T05:26:34.344Z,14.93
2022-08-20T05:29:05.063Z,13.60
2022-08-20T05:31:34.874Z,12.20
2022-08-20T05:34:03.394Z,14.95
2022-08-20T05:36:31.436Z,18.88
2022-08-20T05:39:00.765Z,14.57
2022-08-20T05:41:30.610Z,13.20
2022-08-20T05:44:01.732Z,12.73
2022-08-20T05:46:31.232Z,15.77
2022-08-20T05:49:01.390Z,15.52
2022-08-20T05:51:30.179Z,19.35
2022-08-20T05:54:00.034Z,13.75
2022-08-20T05:56:30.467Z,12.88
2022-08-20T05:59:01.523Z,14.20
2022-08-20T06:01:29.969Z,12.23
2022-08-20T06:04:16.057Z,14.60
2022-08-20T06:06:44.844Z,11.70
2022-08-20T06:09:27.961Z,15.98
2022-08-20T06:12:01.564Z,15.75
2022-08-20T06:14:30.014Z,18.10
2022-08-20T06:17:05.288Z,12.23
2022-08-20T06:19:33.764Z,10.02
2022-08-20T06:22:02.523Z,17.70
2022-08-20T06:24:47.562Z,14.40
2022-08-20T06:27:17.518Z,14.85
2022-08-20T06:29:45.538Z,11.80
2022-08-20T06:32:14.155Z,13.02
2022-08-20T06:34:50.393Z,14.70
2022-08-20T06:37:21.158Z,15.13
2022-08-20T06:39:51.062Z,10.50
2022-08-20T06:42:21.236Z,17.33
2022-08-20T06:44:49.576Z,17.75
2022-08-20T06:47:18.708Z,11.77
2022-08-20T06:49:47.559Z,15.00
2022-08-20T06:52:17.084Z,13.52
2022-08-20T06:54:45.508Z,13.70
2022-08-20T06:57:15.156Z,10.43
2022-08-20T06:59:43.202Z,12.00
2022-08-20T07:02:11.170Z,13.32
2022-08-20T07:04:39.211Z,15.75
2022-08-20T07:07:07.472Z,13.13
2022-08-20T07:09:35.487Z,13.55
2022-08-20T07:12:03.751Z,17.15
2022-08-20T07:14:33.182Z,12.30
2022-08-20T07:17:03.992Z,10.63
2022-08-20T07:19:38.210Z,19.65
2022-08-20T07:22:08.399Z,15.98
2022-08-20T07:24:39.015Z,12.75
2022-08-20T07:27:09.162Z,11.88
2022-08-20T07:29:56.102Z,20.63
2022-08-20T07:32:39.453Z,9.60
2022-08-20T07:35:10.733Z,18.17
2022-08-20T07:37:41.163Z,9.45
2022-08-20T07:40:12.726Z,12.65
2022-08-20T07:42:41.275Z,13.02
2022-08-20T07:45:13.613Z,6.03
2022-08-20T07:47:43.847Z,12.63
2022-08-20T07:50:13.779Z,8.98
2022-08-20T07:52:41.971Z,7.47
2022-08-20T07:55:13.276Z,16.33
2022-08-20T07:57:41.710Z,13.38
2022-08-20T08:00:13.855Z,13.63
2022-08-20T08:02:42.026Z,15.50
2022-08-20T08:05:11.315Z,6.95
2022-08-20T08:07:40.429Z,10.10
2022-08-20T08:10:14.879Z,17.02
2022-08-20T08:12:49.774Z,11.07
2022-08-20T08:15:22.607Z,12.20
2022-08-20T08:17:52.829Z,9.27
2022-08-20T08:20:22.826Z,9.48
2022-08-20T08:22:51.812Z,16.15
2022-08-20T08:25:19.955Z,15.75
2022-08-20T08:27:49.275Z,9.80
2022-08-20T08:30:19.252Z,14.63
2022-08-20T08:33:04.769Z,11.02
2022-08-20T08:35:33.392Z,12.68
2022-08-20T08:38:02.513Z,13.65
2022-08-20T08:40:31.916Z,22.65
2022-08-20T08:43:07.456Z,7.72
2022-08-20T08:45:45.989Z,11.80
2022-08-20T08:48:18.623Z,12.43
2022-08-20T08:50:52.947Z,7.25
2022-08-20T08:53:26.056Z,15.35
2022-08-20T08:55:54.133Z,9.13
2022-08-20T08:58:22.390Z,9.75
2022-08-20T09:00:56.015Z,12.02
2022-08-20T09:03:28.159Z,7.32
2022-08-20T09:06:00.840Z,8.60
2022-08-20T09:08:33.446Z,12.10
2022-08-20T09:11:08.623Z,8.32
2022-08-20T09:13:36.827Z,16.05
2022-08-20T09:16:06.660Z,6.72
2022-08-20T09:18:34.935Z,10.07
2022-08-20T09:21:03.699Z,8.18
2022-08-20T09:23:32.039Z,7.97
2022-08-20T09:26:00.308Z,5.72
2022-08-20T09:28:32.251Z,7.15
2022-08-20T09:31:03.165Z,9.98
2022-08-20T09:33:33.852Z,6.95
2022-08-20T09:36:02.589Z,12.98
2022-08-20T09:38:30.835Z,6.57
2022-08-20T09:40:58.904Z,9.20
2022-08-20T09:43:27.040Z,7.32
2022-08-20T09:45:55.774Z,9.98
2022-08-20T09:48:32.119Z,7.75
2022-08-20T09:51:02.335Z,19.08
2022-08-20T09:53:31.488Z,16.77
2022-08-20T09:56:00.710Z,7.88
2022-08-20T09:58:36.040Z,13.35
2022-08-20T10:01:13.789Z,13.13
2022-08-20T10:03:43.007Z,8.80
2022-08-20T10:06:14.822Z,6.97
2022-08-20T10:08:43.572Z,9.68
2022-08-20T10:11:12.121Z,16.05
2022-08-20T10:13:40.197Z,9.68
2022-08-20T10:16:08.615Z,9.02
2022-08-20T10:18:37.397Z,10.82
2022-08-20T10:21:11.545Z,6.40
2022-08-20T10:26:09.321Z,9.27
2022-08-20T10:28:37.878Z,7.50
2022-08-20T10:31:07.347Z,3.85
2022-08-20T10:33:36.546Z,11.40
2022-08-20T10:36:08.977Z,6.90
2022-08-20T10:38:37.300Z,9.43
2022-08-20T10:41:07.919Z,10.40
2022-08-20T10:43:36.543Z,7.53
2022-08-20T10:46:05.503Z,10.55
2022-08-20T10:48:33.901Z,7.63
2022-08-20T10:51:02.276Z,9.27
2022-08-20T10:53:30.343Z,7.70
2022-08-20T10:56:01.078Z,8.23
2022-08-20T10:58:39.232Z,6.63
2022-08-20T11:01:09.098Z,11.85
2022-08-20T11:03:37.510Z,6.90
2022-08-20T11:06:06.384Z,7.85
2022-08-20T11:08:36.009Z,8.02
2022-08-20T11:11:04.999Z,14.95
2022-08-20T11:13:34.949Z,9.23
2022-08-20T11:16:04.827Z,11.25
2022-08-20T11:18:33.588Z,14.23
2022-08-20T11:21:02.230Z,5.38
2022-08-20T11:23:30.561Z,7.45
2022-08-20T11:25:59.309Z,7.43
2022-08-20T11:28:32.271Z,6.63
2022-08-20T11:31:02.745Z,14.75
2022-08-20T11:33:31.003Z,8.65
2022-08-20T11:35:59.234Z,9.55
2022-08-20T11:38:27.874Z,8.05
2022-08-20T11:40:56.051Z,9.73
2022-08-20T11:43:24.545Z,8.18
2022-08-20T11:45:57.140Z,3.97
2022-08-20T11:48:27.203Z,5.50
2022-08-20T11:50:55.308Z,6.13
2022-08-20T11:53:23.375Z,7.20
2022-08-20T11:55:51.598Z,6.18
2022-08-20T11:58:19.863Z,6.05
2022-08-20T12:00:48.114Z,8.02
2022-08-20T12:03:16.848Z,10.75
2022-08-20T12:05:47.675Z,5.78
2022-08-20T12:08:25.151Z,7.82
2022-08-20T12:10:57.029Z,10.48
2022-08-20T12:13:30.765Z,15.50
2022-08-20T12:16:13.912Z,11.25
2022-08-20T12:18:42.214Z,9.88
2022-08-20T12:21:11.928Z,12.38
2022-08-20T12:23:40.120Z,14.63
2022-08-20T12:26:08.414Z,8.95
2022-08-20T12:28:37.884Z,4.68
2022-08-20T12:31:06.192Z,9.90
2022-08-20T12:33:34.337Z,8.95
2022-08-20T12:36:02.721Z,12.13
2022-08-20T12:38:32.450Z,12.40
2022-08-20T12:41:01.375Z,7.78
2022-08-20T12:43:29.589Z,9.70
2022-08-20T12:45:58.028Z,8.25
2022-08-20T12:48:27.731Z,9.45
2022-08-20T12:50:55.986Z,8.80
2022-08-20T12:53:24.059Z,4.63
2022-08-20T12:55:53.950Z,10.38
2022-08-20T12:58:22.273Z,13.45
2022-08-20T13:00:51.385Z,5.57
2022-08-20T13:03:21.157Z,9.82
2022-08-20T13:05:50.223Z,7.22
2022-08-20T13:08:19.389Z,6.78
2022-08-20T13:10:48.055Z,10.15
2022-08-20T13:13:20.432Z,6.43
2022-08-20T13:15:49.599Z,9.23
2022-08-20T13:18:17.885Z,6.32
2022-08-20T13:20:46.012Z,5.15
2022-08-20T13:23:14.078Z,11.70
2022-08-20T13:25:42.216Z,11.48
2022-08-20T13:28:10.280Z,5.50
2022-08-20T13:30:41.093Z,9.30
2022-08-20T13:33:09.145Z,5.45
2022-08-20T13:35:37.253Z,8.00
2022-08-20T13:38:05.718Z,11.93
2022-08-20T13:40:34.377Z,11.20
2022-08-20T13:43:06.824Z,12.98
2022-08-20T13:45:35.648Z,11.93
2022-08-20T13:48:07.520Z,10.98
2022-08-20T13:50:42.703Z,7.53
2022-08-20T13:53:10.892Z,8.43
2022-08-20T13:55:39.214Z,7.18
2022-08-20T13:58:08.946Z,7.35
2022-08-20T14:00:37.830Z,6.28
2022-08-20T14:03:08.187Z,9.13
2022-08-20T14:05:36.793Z,8.15
2022-08-20T14:08:09.611Z,7.70
2022-08-20T14:10:38.516Z,13.60
2022-08-20T14:13:08.392Z,9.50
2022-08-20T14:15:38.823Z,5.65
2022-08-20T14:18:08.552Z,5.97
2022-08-20T14:20:38.685Z,9.82
2022-08-20T14:23:07.403Z,8.45
2022-08-20T14:25:35.855Z,8.52
2022-08-20T14:28:11.664Z,6.05
2022-08-20T14:30:39.990Z,9.70
2022-08-20T14:33:09.706Z,6.72
2022-08-20T14:35:38.155Z,9.15
2022-08-20T14:38:06.991Z,10.85
2022-08-20T14:40:36.649Z,15.20
2022-08-20T14:43:04.685Z,8.60
2022-08-20T14:45:35.109Z,7.97
2022-08-20T14:48:07.923Z,8.00
2022-08-20T14:50:38.125Z,15.15
2022-08-20T14:53:08.225Z,9.32
2022-08-20T14:55:38.949Z,27.77
2022-08-20T14:58:10.258Z,9.75
2022-08-20T15:00:38.507Z,7.10
2022-08-20T15:03:08.583Z,7.75
2022-08-20T15:05:39.197Z,8.65
2022-08-20T15:08:10.441Z,9.10
2022-08-20T15:10:40.364Z,9.20
2022-08-20T15:13:08.885Z,10.80
2022-08-20T15:15:37.105Z,14.15
2022-08-20T15:18:06.109Z,10.43
2022-08-20T15:20:36.033Z,9.68
2022-08-20T15:23:06.080Z,14.25
2022-08-20T15:25:37.973Z,11.73
2022-08-20T15:28:08.890Z,11.52
2022-08-20T15:30:40.752Z,11.85
2022-08-20T15:33:11.268Z,11.52
2022-08-20T15:35:40.041Z,7.90
2022-08-20T15:38:09.971Z,9.75
2022-08-20T15:40:38.468Z,11.95
2022-08-20T15:43:07.557Z,9.68
2022-08-20T15:46:44.404Z,9.73
2022-08-20T15:49:15.854Z,12.45
2022-08-20T15:51:46.684Z,6.68
2022-08-20T15:54:20.382Z,9.50
2022-08-20T15:56:59.626Z,5.97
2022-08-20T15:59:43.303Z,7.07
2022-08-20T16:02:39.138Z,6.32
2022-08-20T16:05:23.705Z,11.23
2022-08-20T16:08:04.375Z,9.30
2022-08-20T16:10:43.583Z,5.20
2022-08-20T16:13:24.313Z,6.43
2022-08-20T16:15:56.051Z,13.45
2022-08-20T16:18:28.888Z,7.03
2022-08-20T16:21:03.825Z,7.88
2022-08-20T16:23:35.444Z,8.40
2022-08-20T16:26:16.371Z,2.67
2022-08-20T16:28:54.032Z,6.50
2022-08-20T16:31:26.640Z,13.10
2022-08-20T16:34:10.518Z,10.60
2022-08-20T16:37:03.277Z,7.60
2022-08-20T16:39:38.491Z,9.63
2022-08-20T16:42:10.158Z,6.63
2022-08-20T16:44:41.760Z,9.15
2022-08-20T16:47:17.189Z,5.85
2022-08-20T16:49:50.745Z,11.93
2022-08-20T16:52:18.809Z,10.48
2022-08-20T16:54:46.824Z,6.93
2022-08-20T16:57:17.517Z,12.52
2022-08-20T16:59:57.095Z,6.88
2022-08-20T17:02:26.259Z,11.63
2022-08-20T17:05:00.850Z,9.65
2022-08-20T17:07:43.254Z,10.30
2022-08-20T17:10:16.019Z,8.68
2022-08-20T17:12:45.848Z,5.30
2022-08-20T17:15:22.491Z,8.40
2022-08-20T17:17:50.843Z,9.88
2022-08-20T17:20:21.501Z,12.18
2022-08-20T17:22:52.916Z,10.82
2022-08-20T17:25:30.784Z,9.30
2022-08-20T17:28:01.048Z,7.40
2022-08-20T17:30:37.528Z,5.35
2022-08-20T17:33:22.930Z,9.68
2022-08-20T17:35:54.743Z,6.47
2022-08-20T17:38:29.816Z,5.78
2022-08-20T17:41:00.791Z,14.48
2022-08-20T17:43:32.258Z,7.10
2022-08-20T17:46:03.166Z,5.78
2022-08-20T17:48:36.561Z,6.72
2022-08-20T17:51:14.705Z,7.25
2022-08-20T17:53:44.829Z,7.75
2022-08-20T17:56:19.454Z,7.72
2022-08-20T17:58:54.471Z,6.75
2022-08-20T18:01:25.942Z,6.65
2022-08-20T18:03:54.634Z,9.02
2022-08-20T18:06:31.068Z,9.60
2022-08-20T18:09:05.814Z,7.65
2022-08-20T18:11:41.151Z,11.07
2022-08-20T18:14:39.106Z,3.88
2022-08-20T18:17:31.164Z,4.80
2022-08-20T18:20:11.534Z,5.93
2022-08-20T18:22:49.080Z,5.68
2022-08-20T18:25:28.248Z,9.05
2022-08-20T18:28:02.823Z,7.65
2022-08-20T18:30:34.334Z,8.00
2022-08-20T18:33:06.392Z,9.25
2022-08-20T18:35:37.635Z,5.28
2022-08-20T18:38:29.695Z,9.05
2022-08-20T18:41:11.819Z,3.40
2022-08-20T18:43:42.685Z,5.82
2022-08-20T18:46:21.481Z,7.47
2022-08-20T18:48:58.454Z,3.83
2022-08-20T18:51:36.204Z,7.82
2022-08-20T18:54:05.358Z,7.22
2022-08-20T18:57:02.685Z,6.93
2022-08-20T18:59:32.302Z,8.75
2022-08-20T19:02:15.860Z,8.63
2022-08-20T19:04:44.651Z,6.63
2022-08-20T19:07:17.751Z,6.28
2022-08-20T19:10:27.897Z,5.55
2022-08-20T19:13:50.228Z,3.47
2022-08-20T19:16:24.863Z,5.45
2022-08-20T19:18:56.173Z,3.90
2022-08-20T19:21:28.132Z,9.55
2022-08-20T19:24:00.925Z,7.97
2022-08-20T19:26:32.699Z,6.63
2022-08-20T19:29:08.412Z,6.88
2022-08-20T19:31:37.821Z,3.88
2022-08-20T19:34:21.491Z,4.88
2022-08-20T19:36:56.089Z,7.57
2022-08-20T19:39:26.186Z,8.63
2022-08-20T19:41:57.692Z,3.80
2022-08-20T19:44:32.727Z,5.85
2022-08-20T19:47:02.020Z,4.22
2022-08-20T19:49:42.723Z,2.63
2022-08-20T19:52:26.301Z,4.72
2022-08-20T19:55:01.330Z,2.75
2022-08-20T19:57:31.768Z,7.90
2022-08-20T20:00:04.898Z,4.57
2022-08-20T20:02:34.615Z,6.15
2022-08-20T20:05:08.142Z,6.40
2022-08-20T20:07:40.305Z,5.13
2022-08-20T20:10:11.615Z,5.63
2022-08-20T20:12:40.572Z,5.47
2022-08-20T20:15:09.241Z,5.60
2022-08-20T20:17:38.116Z,6.65
2022-08-20T20:20:23.157Z,8.15
2022-08-20T20:22:55.760Z,8.20
2022-08-20T20:25:37.107Z,2.63
2022-08-20T20:28:10.854Z,4.95
2022-08-20T20:31:17.656Z,8.30
2022-08-20T20:33:52.234Z,5.55
2022-08-20T20:36:36.326Z,3.90
2022-08-20T20:39:11.248Z,10.95
2022-08-20T20:41:51.856Z,6.40
2022-08-20T20:44:21.509Z,5.90
2022-08-20T20:46:52.848Z,3.95
2022-08-20T20:49:26.507Z,4.57
2022-08-20T20:51:59.729Z,7.35
2022-08-20T20:54:33.836Z,5.30
2022-08-20T20:57:05.183Z,9.23
2022-08-20T20:59:36.363Z,5.78
2022-08-20T21:02:05.656Z,6.20
2022-08-20T21:04:34.164Z,10.68
2022-08-20T21:07:09.892Z,4.28
2022-08-20T21:09:40.603Z,7.63
2022-08-20T21:13:07.581Z,5.70
2022-08-20T21:15:37.385Z,9.40
2022-08-20T21:18:08.549Z,6.25
2022-08-20T21:20:37.590Z,9.07
2022-08-20T21:23:07.139Z,8.43
2022-08-20T21:25:36.461Z,4.97
2022-08-20T21:28:05.380Z,9.23
2022-08-20T21:30:33.815Z,8.63
2022-08-20T21:33:02.534Z,9.30
2022-08-20T21:35:31.723Z,7.75
2022-08-20T21:37:59.743Z,10.18
2022-08-20T21:40:29.310Z,10.07
2022-08-20T21:42:57.491Z,6.25
2022-08-20T21:45:28.261Z,7.68
2022-08-20T21:47:57.175Z,11.27
2022-08-20T21:50:26.155Z,8.13
2022-08-20T21:52:59.194Z,7.00
2022-08-20T21:55:42.274Z,12.65
2022-08-20T21:58:10.863Z,6.63
2022-08-20T22:00:53.858Z,6.35
2022-08-20T22:03:23.468Z,9.15
2022-08-20T22:05:52.565Z,10.90
2022-08-20T22:08:21.728Z,8.75
2022-08-20T22:15:32.133Z,7.22
2022-08-20T22:18:02.229Z,6.43
2022-08-20T22:20:31.147Z,8.82
2022-08-20T22:22:59.408Z,8.38
2022-08-20T22:25:28.145Z,8.80
2022-08-20T22:27:56.283Z,16.75
2022-08-20T22:30:24.446Z,7.82
2022-08-20T22:32:53.182Z,9.23
2022-08-20T22:35:22.972Z,5.70
2022-08-20T22:37:51.598Z,10.30
2022-08-20T22:40:19.966Z,7.63
2022-08-20T22:42:48.110Z,8.13
2022-08-20T22:45:16.479Z,7.65
2022-08-20T22:47:45.189Z,7.50
2022-08-20T22:50:14.617Z,8.25
2022-08-20T22:52:45.451Z,11.23
2022-08-20T22:55:13.928Z,6.97
2022-08-20T23:01:30.247Z,9.20
2022-08-20T23:04:04.625Z,6.50
2022-08-20T23:06:32.960Z,8.20
2022-08-20T23:09:02.800Z,9.70
2022-08-20T23:11:31.109Z,9.60
2022-08-20T23:13:59.227Z,6.57
2022-08-20T23:16:27.571Z,7.72
2022-08-20T23:18:56.897Z,9.32
2022-08-20T23:25:08.751Z,13.85
2022-08-20T23:27:42.422Z,8.75
2022-08-20T23:30:11.653Z,9.00
2022-08-20T23:32:40.137Z,11.07
2022-08-20T23:35:09.905Z,10.45
2022-08-20T23:37:42.161Z,8.75
2022-08-20T23:40:13.201Z,8.95
2022-08-20T23:43:38.153Z,11.20
2022-08-20T23:46:09.275Z,10.65
2022-08-20T23:48:38.260Z,9.07
2022-08-20T23:51:07.060Z,7.80
2022-08-20T23:53:35.390Z,6.47
2022-08-20T23:56:05.406Z,8.20
2022-08-20T23:58:33.577Z,7.80
